Time;durP1;ratioP1;P1;durP2;ratioP2;P2;SDS_P1;SDS_P2;PMS_P1;PMS_P2;Temp;Humidity;BMP_temperature;BMP_pressure;BME280_temperature;BME280_humidity;BME280_pressure;Samples;Min_cycle;Max_cycle;Signal;HPM_P1;HPM_P2
2022/07/05 00:01:59;;;;;;;;;;;;;;;23.90;65.63;99582.44;4939600;29;20391;-67
2022/07/05 00:04:27;;;;;;;;;;;;;;;23.75;66.14;99572.91;4939423;29;19926;-68
2022/07/05 00:09:34;;;;;;;;;;;;;;;23.82;65.76;99566.41;4940009;29;20357;-67
2022/07/05 00:12:03;;;;;;;;;;;;;;;23.87;65.66;99561.75;4939666;29;19930;-68
2022/07/05 00:14:31;;;;;;;;;;;;;;;23.96;65.65;99555.19;4939627;29;19923;-67
2022/07/05 00:17:03;;;;;;;;;;;;;;;24.03;65.31;99559.13;4939315;29;20373;-67
2022/07/05 00:19:31;;;;;;;;;;;;;;;24.01;64.43;99563.59;4939314;29;20378;-67
2022/07/05 00:22:00;;;;;;;;;;;;;;;24.06;64.30;99565.94;4939535;29;19965;-67
2022/07/05 00:24:28;;;;;;;;;;;;;;;24.16;63.96;99556.69;4939098;29;19923;-67
2022/07/05 00:26:57;;;;;;;;;;;;;;;24.24;63.66;99564.88;4939491;29;19930;-67
2022/07/05 00:29:27;;;;;;;;;;;;;;;24.22;63.63;99562.38;4939071;29;19929;-66
2022/07/05 00:31:55;;;;;;;;;;;;;;;24.21;63.70;99555.47;4939071;29;19923;-68
2022/07/05 00:34:25;;;;;;;;;;;;;;;24.22;63.49;99545.88;4939063;29;19938;-68
2022/07/05 00:36:54;;;;;;;;;;;;;;;24.30;63.43;99554.09;4938977;29;19923;-68
2022/07/05 00:39:23;;;;;;;;;;;;;;;24.36;63.39;99553.72;4939484;29;19945;-67
2022/07/05 00:41:51;;;;;;;;;;;;;;;24.26;64.22;99555.22;4938140;29;19974;-67
2022/07/05 00:44:28;;;;;;;;;;;;;;;24.16;64.21;99547.09;4938628;29;19922;-68
2022/07/05 00:46:57;;;;;;;;;;;;;;;24.15;63.75;99545.41;4938797;29;20017;-67
2022/07/05 00:49:27;;;;;;;;;;;;;;;24.24;63.08;99557.06;4938979;29;20005;-68
2022/07/05 00:51:55;;;;;;;;;;;;;;;24.29;62.50;99557.63;4938924;29;19922;-68
2022/07/05 00:54:45;;;;;;;;;;;;;;;24.29;62.54;99553.25;4938637;29;19979;-67
2022/07/05 00:57:14;;;;;;;;;;;;;;;24.27;62.73;99554.28;4938559;29;19922;-68
2022/07/05 00:59:43;;;;;;;;;;;;;;;24.12;63.49;99556.00;4921606;29;20005;-68
2022/07/05 01:02:12;;;;;;;;;;;;;;;23.94;63.96;99552.69;4938523;29;19922;-68
2022/07/05 01:04:49;;;;;;;;;;;;;;;23.84;64.88;99546.31;4939095;29;19922;-68
2022/07/05 01:07:19;;;;;;;;;;;;;;;23.88;65.30;99550.41;4921303;29;19937;-67
2022/07/05 01:09:47;;;;;;;;;;;;;;;23.94;65.35;99542.25;4921688;29;20378;-67
2022/07/05 01:12:16;;;;;;;;;;;;;;;23.91;65.46;99545.03;4938351;29;19996;-68
2022/07/05 01:14:45;;;;;;;;;;;;;;;23.91;65.52;99537.19;4906081;29;19923;-67
2022/07/05 01:17:15;;;;;;;;;;;;;;;23.97;65.18;99531.63;4938466;29;20365;-68
2022/07/05 01:19:44;;;;;;;;;;;;;;;23.98;64.85;99541.13;4938540;29;19923;-68
2022/07/05 01:22:17;;;;;;;;;;;;;;;23.98;64.92;99538.53;4938090;29;19923;-67
2022/07/05 01:24:47;;;;;;;;;;;;;;;24.05;64.99;99527.72;4938153;29;20026;-68
2022/07/05 01:27:16;;;;;;;;;;;;;;;23.96;65.91;99522.13;4938153;29;20266;-67
2022/07/05 01:29:45;;;;;;;;;;;;;;;23.81;66.65;99525.63;4938015;29;19988;-67
2022/07/05 01:32:13;;;;;;;;;;;;;;;23.67;67.77;99527.31;4937845;29;20026;-67
2022/07/05 01:34:43;;;;;;;;;;;;;;;23.50;69.26;99525.66;4937895;29;20010;-68
2022/07/05 01:37:12;;;;;;;;;;;;;;;23.35;69.98;99526.50;4938294;29;20460;-67
2022/07/05 01:39:41;;;;;;;;;;;;;;;23.30;70.18;99523.28;4937753;29;19977;-66
2022/07/05 01:42:11;;;;;;;;;;;;;;;23.31;71.47;99514.56;4937745;29;19966;-69
2022/07/05 01:44:39;;;;;;;;;;;;;;;23.20;72.48;99511.72;4937972;29;19982;-69
2022/07/05 01:47:09;;;;;;;;;;;;;;;;;;4937945;29;20009;-69
2022/07/05 01:49:41;;;;;;;;;;;;;;;23.06;73.39;99519.44;4920687;29;19970;-69
2022/07/05 01:52:11;;;;;;;;;;;;;;;23.12;73.88;99516.50;4937668;29;19929;-69
2022/07/05 01:54:41;;;;;;;;;;;;;;;23.21;74.23;99518.59;4920572;29;19929;-68
2022/07/05 01:57:12;;;;;;;;;;;;;;;23.33;74.20;99520.50;4920739;29;19950;-69
2022/07/05 01:59:41;;;;;;;;;;;;;;;23.43;74.27;99508.69;4937572;29;19923;-69
2022/07/05 02:02:09;;;;;;;;;;;;;;;23.46;74.07;99513.75;4937422;29;20345;-69
2022/07/05 02:04:39;;;;;;;;;;;;;;;23.43;74.29;99516.50;4937609;29;19922;-68
2022/07/05 02:07:11;;;;;;;;;;;;;;;23.45;74.20;99517.25;4920338;29;20017;-67
2022/07/05 02:09:41;;;;;;;;;;;;;;;23.50;73.50;99515.25;4920755;29;20010;-69
2022/07/05 02:12:10;;;;;;;;;;;;;;;23.56;73.13;99509.69;4920503;29;20432;-69
2022/07/05 02:14:41;;;;;;;;;;;;;;;23.63;72.96;99511.03;4920249;29;19977;-69
2022/07/05 02:17:16;;;;;;;;;;;;;;;23.71;72.76;99506.19;4920404;29;19923;-69
2022/07/05 02:19:49;;;;;;;;;;;;;;;23.77;72.26;99513.69;4920174;29;20404;-68
2022/07/05 02:22:19;;;;;;;;;;;;;;;23.78;71.74;99507.53;4920484;29;20317;-68
2022/07/05 02:24:48;;;;;;;;;;;;;;;23.75;71.56;99510.34;4920096;29;20030;-68
2022/07/05 02:27:25;;;;;;;;;;;;;;;23.65;72.11;99514.38;4920119;29;19930;-69
2022/07/05 02:29:55;;;;;;;;;;;;;;;23.59;72.26;99514.72;4936919;29;20417;-68
2022/07/05 02:32:35;;;;;;;;;;;;;;;23.51;73.08;99509.13;4920095;29;19922;-68
2022/07/05 02:35:06;;;;;;;;;;;;;;;23.51;72.82;99506.50;4920827;29;19927;-68
2022/07/05 02:37:35;;;;;;;;;;;;;;;23.43;72.46;99513.91;4920000;29;19931;-68
2022/07/05 02:40:06;;;;;;;;;;;;;;;23.42;72.53;99509.59;4919866;29;19923;-69
2022/07/05 02:42:39;;;;;;;;;;;;;;;23.33;72.58;99510.09;4937228;29;19922;-68
2022/07/05 02:45:11;;;;;;;;;;;;;;;23.41;72.50;99502.75;4920226;29;20036;-68
2022/07/05 02:47:41;;;;;;;;;;;;;;;23.53;72.68;99498.59;4920409;29;19923;-68
2022/07/05 02:50:11;;;;;;;;;;;;;;;23.61;72.40;99497.22;4920113;29;19923;-68
2022/07/05 02:52:44;;;;;;;;;;;;;;;23.69;72.25;99494.19;4919820;29;19923;-68
2022/07/05 02:55:15;;;;;;;;;;;;;;;23.66;71.82;99495.19;4920035;29;20366;-69
2022/07/05 02:57:44;;;;;;;;;;;;;;;23.69;72.08;99500.25;4936440;29;19923;-68
2022/07/05 03:00:16;;;;;;;;;;;;;;;23.72;71.91;99494.03;4919713;29;19923;-68
2022/07/05 03:02:47;;;;;;;;;;;;;;;23.79;71.90;99496.19;4919709;29;19922;-68
2022/07/05 03:05:17;;;;;;;;;;;;;;;23.82;71.71;99509.06;4920165;29;19926;-68
2022/07/05 03:07:56;;;;;;;;;;;;;;;23.81;71.04;99507.38;4924190;29;20077;-69
2022/07/05 03:10:26;;;;;;;;;;;;;;;23.79;71.19;99511.84;4923804;29;20357;-69
2022/07/05 03:12:57;;;;;;;;;;;;;;;23.70;71.59;99511.53;4923508;29;19974;-69
2022/07/05 03:15:27;;;;;;;;;;;;;;;23.72;71.67;99509.66;4923495;29;20013;-69
2022/07/05 03:17:56;;;;;;;;;;;;;;;23.75;71.27;99514.72;4923512;29;19922;-68
2022/07/05 03:20:26;;;;;;;;;;;;;;;23.59;71.76;99514.72;4923704;29;19922;-68
2022/07/05 03:22:56;;;;;;;;;;;;;;;23.55;72.00;99513.22;4923622;29;19923;-69
2022/07/05 03:25:32;;;;;;;;;;;;;;;23.52;72.40;99518.59;4923367;29;19964;-68
2022/07/05 03:28:03;;;;;;;;;;;;;;;23.46;72.72;99512.91;4923584;29;20005;-68
2022/07/05 03:30:33;;;;;;;;;;;;;;;23.48;72.39;99522.31;4923337;29;20320;-68
2022/07/05 03:33:02;;;;;;;;;;;;;;;23.53;71.98;99515.06;4923397;29;20326;-68
2022/07/05 03:35:33;;;;;;;;;;;;;;;23.58;71.33;99514.81;4940124;29;19922;-68
2022/07/05 03:38:02;;;;;;;;;;;;;;;23.60;70.77;99511.19;4923288;29;19969;-68
2022/07/05 03:40:31;;;;;;;;;;;;;;;23.59;69.94;99525.16;4940263;29;19923;-68
2022/07/05 03:43:00;;;;;;;;;;;;;;;23.62;69.71;99527.59;4922901;29;19927;-68
2022/07/05 03:45:34;;;;;;;;;;;;;;;23.69;69.92;99526.31;4923266;29;20026;-68
2022/07/05 03:48:05;;;;;;;;;;;;;;;23.70;70.10;99527.16;4939904;29;19923;-68
2022/07/05 03:50:54;;;;;;;;;;;;;;;23.71;70.14;99527.06;4922839;29;20368;-68
2022/07/05 03:53:23;;;;;;;;;;;;;;;23.73;70.10;99533.00;4923060;29;19966;-68
2022/07/05 03:55:52;;;;;;;;;;;;;;;23.73;69.66;99529.59;4923239;29;20301;-68
2022/07/05 03:58:20;;;;;;;;;;;;;;;23.72;69.57;99533.13;4922792;29;19926;-69
2022/07/05 04:00:50;;;;;;;;;;;;;;;23.75;69.03;99536.41;4922603;29;19922;-68
2022/07/05 04:03:22;;;;;;;;;;;;;;;23.80;69.09;99529.13;4939567;29;19926;-69
2022/07/05 04:05:53;;;;;;;;;;;;;;;23.78;68.53;99528.38;4922948;29;19977;-68
2022/07/05 04:08:22;;;;;;;;;;;;;;;23.69;68.94;99526.31;4939791;29;19964;-68
2022/07/05 04:10:51;;;;;;;;;;;;;;;23.66;69.34;99525.66;4922442;29;20373;-68
2022/07/05 04:13:22;;;;;;;;;;;;;;;23.62;70.13;99527.59;4922395;29;19923;-68
2022/07/05 04:15:55;;;;;;;;;;;;;;;23.66;69.36;99529.09;4922803;29;19930;-68
2022/07/05 04:18:24;;;;;;;;;;;;;;;23.66;68.68;99528.28;4921325;29;20052;-68
2022/07/05 04:20:55;;;;;;;;;;;;;;;23.71;68.60;99529.66;4939319;29;19923;-69
2022/07/05 04:23:25;;;;;;;;;;;;;;;23.76;68.28;99527.63;4922237;29;19923;-68
2022/07/05 04:25:53;;;;;;;;;;;;;;;23.82;68.03;99529.91;4922198;29;20297;-68
2022/07/05 04:28:35;;;;;;;;;;;;;;;23.82;67.32;99516.88;4922621;29;20318;-68
2022/07/05 04:31:09;;;;;;;;;;;;;;;23.86;67.40;99520.97;4922209;29;20420;-69
2022/07/05 04:33:42;;;;;;;;;;;;;;;23.89;67.15;99522.56;4921925;29;20013;-68
2022/07/05 04:36:14;;;;;;;;;;;;;;;23.92;66.38;99525.81;4922571;29;20388;-68
2022/07/05 04:38:43;;;;;;;;;;;;;;;23.93;66.27;99522.31;4938924;29;19938;-68
2022/07/05 04:41:11;;;;;;;;;;;;;;;23.94;65.96;99521.38;4922362;29;20365;-68
2022/07/05 04:43:40;;;;;;;;;;;;;;;23.96;66.21;99513.47;4922213;29;19966;-68
2022/07/05 04:46:14;;;;;;;;;;;;;;;23.99;66.05;99508.91;4922145;29;20329;-68
2022/07/05 04:48:44;;;;;;;;;;;;;;;23.97;65.84;99510.75;4921878;29;19926;-68
2022/07/05 04:51:14;;;;;;;;;;;;;;;23.98;65.98;99512.44;4922159;29;19923;-68
2022/07/05 04:53:43;;;;;;;;;;;;;;;24.00;66.04;99509.75;4938561;29;20369;-68
2022/07/05 04:56:12;;;;;;;;;;;;;;;24.02;66.04;99512.28;4939473;29;20288;-68
2022/07/05 04:58:40;;;;;;;;;;;;;;;24.03;66.27;99514.78;4938369;29;19927;-68
2022/07/05 05:01:09;;;;;;;;;;;;;;;24.03;66.67;99514.78;4938587;29;19929;-68
2022/07/05 05:03:39;;;;;;;;;;;;;;;24.01;66.71;99519.25;4938475;29;19922;-68
2022/07/05 05:06:08;;;;;;;;;;;;;;;24.04;66.71;99516.47;4938488;29;19923;-68
2022/07/05 05:08:36;;;;;;;;;;;;;;;24.06;66.91;99529.41;4938731;29;20258;-68
2022/07/05 05:11:05;;;;;;;;;;;;;;;24.00;67.81;99531.44;4938381;29;20005;-68
2022/07/05 05:13:34;;;;;;;;;;;;;;;23.98;67.89;99528.09;4938386;29;19929;-68
2022/07/05 05:16:03;;;;;;;;;;;;;;;23.98;67.12;99533.31;4938448;29;20445;-68
2022/07/05 05:18:31;;;;;;;;;;;;;;;24.04;67.32;99536.50;4938211;29;19926;-68
2022/07/05 05:21:01;;;;;;;;;;;;;;;24.02;66.52;99542.63;4938512;29;20361;-68
2022/07/05 05:23:30;;;;;;;;;;;;;;;24.01;65.90;99547.94;4938694;29;19923;-68
2022/07/05 05:25:59;;;;;;;;;;;;;;;24.00;65.65;99541.88;4938077;29;19977;-69
2022/07/05 05:28:27;;;;;;;;;;;;;;;24.08;65.82;99546.69;4937927;29;20281;-68
2022/07/05 05:30:56;;;;;;;;;;;;;;;24.11;65.66;99543.91;4938601;29;20266;-68
2022/07/05 05:33:24;;;;;;;;;;;;;;;24.08;65.20;99549.28;4938163;29;19923;-68
2022/07/05 05:35:55;;;;;;;;;;;;;;;23.98;66.15;99548.09;4938220;29;20369;-68
2022/07/05 05:38:25;;;;;;;;;;;;;;;23.87;66.78;99551.31;4937866;29;19945;-68
2022/07/05 05:40:53;;;;;;;;;;;;;;;23.80;66.38;99555.19;4921194;29;19926;-68
2022/07/05 05:43:22;;;;;;;;;;;;;;;23.86;66.47;99552.25;4937827;29;19927;-67
2022/07/05 05:45:51;;;;;;;;;;;;;;;23.87;66.32;99560.94;4937990;29;19930;-68
2022/07/05 05:48:19;;;;;;;;;;;;;;;23.77;66.75;99560.63;4937681;29;19965;-67
2022/07/05 05:50:48;;;;;;;;;;;;;;;23.66;67.36;99556.94;4937959;29;19922;-67
2022/07/05 05:53:17;;;;;;;;;;;;;;;23.69;67.63;99556.75;4937491;29;19988;-67
2022/07/05 05:55:46;;;;;;;;;;;;;;;23.74;67.80;99558.16;4937376;29;20291;-68
2022/07/05 05:58:16;;;;;;;;;;;;;;;23.74;68.02;99565.16;4937305;29;19926;-68
2022/07/05 06:00:47;;;;;;;;;;;;;;;23.73;68.16;99569.50;4937490;29;19923;-67
2022/07/05 06:03:16;;;;;;;;;;;;;;;23.66;68.04;99568.19;4937423;29;19929;-68
2022/07/05 06:05:45;;;;;;;;;;;;;;;23.62;68.23;99565.81;4937412;29;19927;-68
2022/07/05 06:08:14;;;;;;;;;;;;;;;23.62;68.70;99574.50;4937632;29;20380;-68
2022/07/05 06:10:42;;;;;;;;;;;;;;;23.66;68.93;99573.38;4937107;29;19970;-69
2022/07/05 06:13:13;;;;;;;;;;;;;;;23.62;69.33;99571.88;4937002;29;20360;-68
2022/07/05 06:15:42;;;;;;;;;;;;;;;23.68;69.48;99574.13;4937216;29;20009;-68
2022/07/05 06:18:11;;;;;;;;;;;;;;;23.75;69.29;99577.25;4937354;29;19923;-68
2022/07/05 06:20:40;;;;;;;;;;;;;;;23.72;69.35;99585.25;4937077;29;19926;-68
2022/07/05 06:23:08;;;;;;;;;;;;;;;23.72;69.32;99593.06;4937353;29;20325;-69
2022/07/05 06:25:38;;;;;;;;;;;;;;;23.74;69.34;99594.66;4937097;29;19955;-68
2022/07/05 06:28:08;;;;;;;;;;;;;;;23.78;69.42;99590.94;4936961;29;19929;-68
2022/07/05 06:30:38;;;;;;;;;;;;;;;23.81;69.63;99602.97;4937269;29;19929;-67
2022/07/05 06:33:07;;;;;;;;;;;;;;;23.84;69.48;99608.03;4936947;29;19930;-67
2022/07/05 06:35:35;;;;;;;;;;;;;;;23.69;69.82;99604.50;4937130;29;20297;-67
2022/07/05 06:38:05;;;;;;;;;;;;;;;23.62;70.41;99613.59;4936747;29;20381;-68
2022/07/05 06:40:34;;;;;;;;;;;;;;;23.53;71.40;99618.47;4936408;29;19926;-68
2022/07/05 06:43:04;;;;;;;;;;;;;;;23.46;72.12;99623.19;4937137;29;20377;-69
2022/07/05 06:45:49;;;;;;;;;;;;;;;23.39;72.66;99620.97;4919903;29;19970;-68
2022/07/05 06:48:18;;;;;;;;;;;;;;;23.38;72.90;99620.13;4936629;29;19927;-68
2022/07/05 06:50:46;;;;;;;;;;;;;;;23.43;73.57;99612.06;4936800;29;19923;-68
2022/07/05 06:53:15;;;;;;;;;;;;;;;23.51;73.59;99615.97;4936616;29;19922;-69
2022/07/05 06:55:45;;;;;;;;;;;;;;;23.57;74.03;99614.75;4936722;29;20300;-68
2022/07/05 06:58:24;;;;;;;;;;;;;;;23.62;74.33;99618.81;4936549;29;19958;-69
2022/07/05 07:00:54;;;;;;;;;;;;;;;23.69;74.70;99629.72;4936940;29;19922;-68
2022/07/05 07:03:43;;;;;;;;;;;;;;;23.73;74.90;99626.84;4919850;29;20400;-69
2022/07/05 07:06:32;;;;;;;;;;;;;;;23.79;75.21;99623.94;4936367;29;20379;-68
2022/07/05 07:11:37;;;;;;;;;;;;;;;23.81;75.37;99629.91;4936667;29;19930;-68
2022/07/05 07:14:06;;;;;;;;;;;;;;;23.75;75.32;99627.66;4936632;29;20018;-68
2022/07/05 07:16:36;;;;;;;;;;;;;;;23.68;75.34;99626.28;4936515;29;19929;-69
2022/07/05 07:19:05;;;;;;;;;;;;;;;23.57;75.66;99622.56;4936495;29;19922;-67
2022/07/05 07:21:42;;;;;;;;;;;;;;;23.54;76.13;99618.38;4936844;29;19923;-67
2022/07/05 07:24:11;;;;;;;;;;;;;;;23.51;76.51;99615.09;4936435;29;19923;-69
2022/07/05 07:29:18;;;;;;;;;;;;;;;23.28;76.88;99619.75;4936428;29;20337;-68
2022/07/05 07:31:48;;;;;;;;;;;;;;;23.21;77.15;99614.94;4936260;29;20009;-68
2022/07/05 07:34:16;;;;;;;;;;;;;;;23.21;77.39;99607.97;4937452;29;19945;-67
2022/07/05 07:36:45;;;;;;;;;;;;;;;23.19;77.50;99603.78;4936321;29;19922;-67
2022/07/05 07:39:13;;;;;;;;;;;;;;;23.19;77.46;99593.34;4936372;29;19923;-67
2022/07/05 07:41:42;;;;;;;;;;;;;;;23.14;77.56;99605.78;4936528;29;19950;-68
2022/07/05 07:44:10;;;;;;;;;;;;;;;23.17;77.68;99616.03;4936160;29;20381;-68
2022/07/05 07:46:40;;;;;;;;;;;;;;;23.12;77.96;99618.91;4936593;29;19923;-68
2022/07/05 07:49:10;;;;;;;;;;;;;;;23.03;78.03;99615.94;4936410;29;19923;-68
2022/07/05 07:51:40;;;;;;;;;;;;;;;22.89;78.31;99615.81;4937442;29;19970;-68
2022/07/05 07:54:08;;;;;;;;;;;;;;;22.74;78.64;99616.59;4939628;29;20385;-68
2022/07/05 07:56:37;;;;;;;;;;;;;;;22.73;79.02;99625.31;4923106;29;19930;-67
2022/07/05 07:59:05;;;;;;;;;;;;;;;22.74;79.09;99624.41;4939573;29;20337;-67
2022/07/05 08:01:34;;;;;;;;;;;;;;;22.63;79.04;99632.75;4922876;29;19927;-67
2022/07/05 08:04:13;;;;;;;;;;;;;;;22.58;79.41;99635.56;4940220;29;20021;-68
2022/07/05 08:06:42;;;;;;;;;;;;;;;22.62;79.58;99607.66;4939654;29;19922;-67
2022/07/05 08:09:11;;;;;;;;;;;;;;;22.65;79.61;99595.31;4939548;29;19929;-67
2022/07/05 08:11:44;;;;;;;;;;;;;;;22.75;79.36;99587.06;4939431;29;20001;-68
2022/07/05 08:14:13;;;;;;;;;;;;;;;22.77;79.01;99600.84;4939504;29;19978;-67
2022/07/05 08:16:41;;;;;;;;;;;;;;;22.70;78.62;99605.50;4939684;29;19961;-67
2022/07/05 08:21:58;;;;;;;;;;;;;;;22.87;78.66;99602.00;4939532;29;20292;-68
2022/07/05 08:24:27;;;;;;;;;;;;;;;22.90;78.66;99602.72;4939536;29;19922;-68
2022/07/05 08:26:55;;;;;;;;;;;;;;;22.91;78.66;99603.56;4939163;29;20026;-68
2022/07/05 08:29:24;;;;;;;;;;;;;;;22.93;78.77;99612.13;4939467;29;19977;-67
2022/07/05 08:31:52;;;;;;;;;;;;;;;22.89;78.66;99626.22;4939039;29;19930;-68
2022/07/05 08:34:22;;;;;;;;;;;;;;;22.89;78.77;99641.84;4938939;29;19923;-67
2022/07/05 08:36:51;;;;;;;;;;;;;;;22.89;78.94;99642.66;4922252;29;19923;-68
2022/07/05 08:39:19;;;;;;;;;;;;;;;22.80;79.08;99642.28;4938832;29;20293;-67
2022/07/05 08:41:49;;;;;;;;;;;;;;;22.80;79.51;99634.50;4921931;29;19922;-67
2022/07/05 08:44:19;;;;;;;;;;;;;;;22.83;79.71;99631.72;4938783;29;20373;-67
2022/07/05 08:46:48;;;;;;;;;;;;;;;22.87;79.88;99639.31;4938746;29;19928;-68
2022/07/05 08:49:21;;;;;;;;;;;;;;;22.83;79.85;99642.16;4938969;29;19945;-68
2022/07/05 08:51:51;;;;;;;;;;;;;;;22.76;79.94;99651.19;4921779;29;19929;-68
2022/07/05 08:54:20;;;;;;;;;;;;;;;22.72;80.06;99634.06;4938472;29;19930;-68
2022/07/05 08:56:48;;;;;;;;;;;;;;;22.70;80.56;99635.91;4921892;29;19978;-67
2022/07/05 08:59:37;;;;;;;;;;;;;;;22.77;80.86;99652.88;4938522;29;19922;-68
2022/07/05 09:02:06;;;;;;;;;;;;;;;22.72;80.97;99657.47;4921771;29;20381;-68
2022/07/05 09:04:38;;;;;;;;;;;;;;;22.63;81.37;99657.00;4937919;29;19950;-69
2022/07/05 09:07:08;;;;;;;;;;;;;;;22.56;81.94;99660.81;4938386;29;19923;-69
2022/07/05 09:09:42;;;;;;;;;;;;;;;22.55;82.56;99659.16;4938731;29;19929;-69
2022/07/05 09:12:13;;;;;;;;;;;;;;;22.54;82.99;99673.06;4921330;29;19922;-69
2022/07/05 09:14:57;;;;;;;;;;;;;;;22.53;83.39;99680.94;4938526;29;20251;-70
2022/07/05 09:17:27;;;;;;;;;;;;;;;22.47;83.64;99676.88;4938550;29;20029;-69
2022/07/05 09:20:07;;;;;;;;;;;;;;;22.46;83.83;99683.00;4938434;29;20266;-70
2022/07/05 09:22:45;;;;;;;;;;;;;;;22.40;83.87;99691.13;4942315;29;19923;-70
2022/07/05 09:25:15;;;;;;;;;;;;;;;22.34;84.17;99694.00;4938022;29;19965;-70
2022/07/05 09:27:48;;;;;;;;;;;;;;;22.34;84.24;99688.78;4938207;29;19970;-70
2022/07/05 09:30:28;;;;;;;;;;;;;;;22.40;84.41;99679.84;4937886;29;20377;-70
2022/07/05 09:33:07;;;;;;;;;;;;;;;22.50;84.45;99666.34;4936877;29;20025;-70
2022/07/05 09:35:37;;;;;;;;;;;;;;;22.61;84.36;99661.47;4937845;29;19926;-71
2022/07/05 09:38:07;;;;;;;;;;;;;;;22.63;84.34;99650.97;4937833;29;20013;-70
2022/07/05 09:40:46;;;;;;;;;;;;;;;22.68;84.19;99655.03;4938027;29;19926;-70
2022/07/05 09:43:15;;;;;;;;;;;;;;;22.65;83.83;99657.78;4937699;29;20296;-71
2022/07/05 09:45:54;;;;;;;;;;;;;;;22.72;83.63;99660.09;4937611;29;20017;-71
2022/07/05 09:48:24;;;;;;;;;;;;;;;22.81;83.66;99664.81;4937628;29;19948;-71
2022/07/05 09:51:09;;;;;;;;;;;;;;;22.89;83.58;99662.69;4920602;29;19923;-71
2022/07/05 09:54:00;;;;;;;;;;;;;;;22.96;83.51;99653.63;4937659;29;20413;-71
2022/07/05 09:56:43;;;;;;;;;;;;;;;22.97;83.31;99656.13;4937588;29;19922;-72
2022/07/05 09:59:16;;;;;;;;;;;;;;;22.98;83.18;99651.78;4937253;29;20385;-71
2022/07/05 10:01:45;;;;;;;;;;;;;;;23.01;82.75;99656.84;4937288;29;19926;-72
2022/07/05 10:04:14;;;;;;;;;;;;;;;22.94;82.13;99650.28;4937353;29;19922;-71
2022/07/05 10:06:43;;;;;;;;;;;;;;;22.89;81.59;99653.06;4937591;29;20059;-71
2022/07/05 10:09:14;;;;;;;;;;;;;;;22.93;81.16;99651.19;4937082;29;19929;-71
2022/07/05 10:11:44;;;;;;;;;;;;;;;22.95;80.64;99655.38;4937225;29;19929;-71
2022/07/05 10:14:15;;;;;;;;;;;;;;;22.97;80.29;99655.28;4937188;29;19923;-71
2022/07/05 10:16:48;;;;;;;;;;;;;;;23.02;80.36;99653.28;4937377;29;19974;-71
2022/07/05 10:19:20;;;;;;;;;;;;;;;23.08;80.21;99645.19;4937086;29;19922;-71
2022/07/05 10:21:49;;;;;;;;;;;;;;;23.12;79.63;99644.09;4937366;29;19926;-71
2022/07/05 10:24:41;;;;;;;;;;;;;;;23.11;79.18;99638.03;4936869;29;19954;-71
2022/07/05 10:27:11;;;;;;;;;;;;;;;23.12;78.90;99633.69;4937335;29;20417;-71
2022/07/05 10:29:40;;;;;;;;;;;;;;;23.01;78.95;99638.63;4936880;29;19922;-72
2022/07/05 10:32:10;;;;;;;;;;;;;;;22.97;79.48;99634.47;4936869;29;19922;-71
2022/07/05 10:34:41;;;;;;;;;;;;;;;23.00;79.26;99624.75;4936975;29;19922;-71
2022/07/05 10:37:27;;;;;;;;;;;;;;;23.02;79.39;99629.88;4936961;29;20392;-71
2022/07/05 10:39:59;;;;;;;;;;;;;;;22.93;79.47;99627.75;4936918;29;19922;-71
2022/07/05 10:42:29;;;;;;;;;;;;;;;22.82;79.85;99624.88;4937020;29;19923;-71
2022/07/05 10:44:58;;;;;;;;;;;;;;;22.93;80.71;99622.53;4936890;29;20329;-71
2022/07/05 10:47:27;;;;;;;;;;;;;;;23.00;81.19;99618.69;4937128;29;19980;-71
2022/07/05 10:50:03;;;;;;;;;;;;;;;23.05;81.08;99622.75;4937008;29;19926;-71
2022/07/05 10:52:32;;;;;;;;;;;;;;;23.16;81.17;99619.56;4936884;29;19929;-71
2022/07/05 10:55:12;;;;;;;;;;;;;;;23.25;80.98;99624.31;4936786;29;19922;-71
2022/07/05 10:57:42;;;;;;;;;;;;;;;23.38;80.65;99620.13;4919891;29;20325;-72
2022/07/05 11:00:12;;;;;;;;;;;;;;;23.52;80.45;99616.78;4936901;29;20025;-72
2022/07/05 11:02:41;;;;;;;;;;;;;;;23.64;80.34;99622.16;4936499;29;19922;-71
2022/07/05 11:05:10;;;;;;;;;;;;;;;23.69;79.81;99630.56;4936782;29;19990;-72
2022/07/05 11:07:49;;;;;;;;;;;;;;;23.72;78.88;99621.75;4936919;29;20309;-72
2022/07/05 11:10:19;;;;;;;;;;;;;;;23.74;77.63;99627.72;4936445;29;19963;-72
2022/07/05 11:12:48;;;;;;;;;;;;;;;23.80;77.36;99622.97;4936505;29;20313;-72
2022/07/05 11:15:17;;;;;;;;;;;;;;;23.76;77.20;99616.28;4936498;29;19923;-70
2022/07/05 11:17:47;;;;;;;;;;;;;;;23.82;76.68;99618.56;4936418;29;20013;-70
2022/07/05 11:20:28;;;;;;;;;;;;;;;23.83;76.18;99616.75;4937009;29;19923;-70
2022/07/05 11:23:04;;;;;;;;;;;;;;;23.89;75.72;99622.50;4936415;29;19978;-70
2022/07/05 11:25:34;;;;;;;;;;;;;;;23.94;75.27;99615.25;4936342;29;19930;-70
2022/07/05 11:28:08;;;;;;;;;;;;;;;23.93;75.08;99608.34;4939789;29;19922;-69
2022/07/05 11:30:47;;;;;;;;;;;;;;;23.90;75.00;99598.09;4940124;29;19927;-69
2022/07/05 11:33:26;;;;;;;;;;;;;;;23.81;74.76;99598.59;4940060;29;20427;-69
2022/07/05 11:35:56;;;;;;;;;;;;;;;23.85;74.41;99588.88;4939993;29;19962;-68
2022/07/05 11:38:24;;;;;;;;;;;;;;;23.83;73.71;99596.75;4922807;29;20373;-68
2022/07/05 11:41:12;;;;;;;;;;;;;;;23.91;73.50;99591.97;4940113;29;19927;-68
2022/07/05 11:43:43;;;;;;;;;;;;;;;23.83;72.91;99586.31;4939769;29;20001;-68
2022/07/05 11:46:12;;;;;;;;;;;;;;;23.76;72.45;99569.34;4923615;29;19922;-68
2022/07/05 11:49:02;;;;;;;;;;;;;;;23.83;72.00;99575.06;4940147;29;19930;-68
2022/07/05 11:51:30;;;;;;;;;;;;;;;23.80;71.73;99570.84;4939530;29;19922;-68
2022/07/05 11:54:01;;;;;;;;;;;;;;;23.86;72.42;99564.44;4939497;29;19926;-68
2022/07/05 11:56:45;;;;;;;;;;;;;;;23.88;72.91;99573.03;4922731;29;20013;-67
2022/07/05 11:59:21;;;;;;;;;;;;;;;23.81;73.85;99575.16;4939390;29;19922;-68
2022/07/05 12:01:51;;;;;;;;;;;;;;;23.75;74.39;99566.84;4939691;29;19954;-67
2022/07/05 12:04:23;;;;;;;;;;;;;;;23.68;75.13;99576.75;4939747;29;19922;-67
2022/07/05 12:06:52;;;;;;;;;;;;;;;23.66;75.78;99568.19;4939423;29;19978;-67
2022/07/05 12:09:25;;;;;;;;;;;;;;;23.60;76.50;99578.13;4939801;29;20001;-67
2022/07/05 12:14:34;;;;;;;;;;;;;;;23.57;76.41;99579.13;4939494;29;19929;-67
2022/07/05 12:17:13;;;;;;;;;;;;;;;23.56;76.51;99577.47;4939574;29;19923;-67
2022/07/05 12:19:52;;;;;;;;;;;;;;;23.50;76.50;99583.00;4939192;29;19927;-67
2022/07/05 12:22:28;;;;;;;;;;;;;;;23.48;76.10;99578.78;4939116;29;19923;-67
2022/07/05 12:24:58;;;;;;;;;;;;;;;23.43;76.27;99580.81;4939403;29;19967;-67
2022/07/05 12:27:27;;;;;;;;;;;;;;;23.46;76.67;99576.28;4939493;29;19922;-67
2022/07/05 12:29:57;;;;;;;;;;;;;;;23.44;77.10;99572.91;4922270;29;19938;-68
2022/07/05 12:32:26;;;;;;;;;;;;;;;23.45;77.39;99569.38;4939067;29;19930;-67
2022/07/05 12:34:54;;;;;;;;;;;;;;;23.51;77.24;99569.06;4939573;29;19922;-67
2022/07/05 12:37:31;;;;;;;;;;;;;;;23.45;77.03;99564.16;4938535;29;19978;-67
2022/07/05 12:40:04;;;;;;;;;;;;;;;23.47;77.33;99577.94;4938274;29;19929;-67
2022/07/05 12:42:33;;;;;;;;;;;;;;;23.50;77.36;99575.19;4939189;29;19930;-67
2022/07/05 12:45:12;;;;;;;;;;;;;;;23.48;77.66;99568.38;4938851;29;19923;-68
2022/07/05 12:47:53;;;;;;;;;;;;;;;23.55;77.79;99570.56;4946254;29;19977;-67
2022/07/05 12:50:25;;;;;;;;;;;;;;;23.55;77.77;99565.34;4957898;29;19933;-67
2022/07/05 12:53:01;;;;;;;;;;;;;;;23.53;78.08;99559.38;4958187;29;19993;-68
2022/07/05 12:58:14;;;;;;;;;;;;;;;23.36;78.88;99549.03;4956121;29;19922;-67
2022/07/05 13:00:43;;;;;;;;;;;;;;;23.33;78.91;99551.78;4957655;29;19922;-68
2022/07/05 13:03:12;;;;;;;;;;;;;;;23.24;78.60;99541.88;4956623;29;19922;-68
2022/07/05 13:05:42;;;;;;;;;;;;;;;23.22;78.67;99551.53;4940646;29;20428;-68
2022/07/05 13:08:10;;;;;;;;;;;;;;;23.26;78.96;99547.81;4957650;29;20017;-68
2022/07/05 13:10:46;;;;;;;;;;;;;;;23.34;79.17;99545.66;4957427;29;19929;-67
2022/07/05 13:13:19;;;;;;;;;;;;;;;23.34;78.86;99545.66;4957575;29;19922;-67
2022/07/05 13:15:47;;;;;;;;;;;;;;;23.27;78.67;99549.53;4957114;29;19923;-68
2022/07/05 13:18:24;;;;;;;;;;;;;;;23.20;78.35;99542.97;4956845;29;19922;-68
2022/07/05 13:20:54;;;;;;;;;;;;;;;23.17;78.36;99538.75;4940541;29;19922;-68
2022/07/05 13:23:23;;;;;;;;;;;;;;;23.21;78.40;99539.41;4957662;29;19930;-67
2022/07/05 13:25:52;;;;;;;;;;;;;;;23.21;78.46;99540.25;4940093;29;20016;-67